CheckWX is a tool to help pilots better visualize weather data.  It is not intended as a substitute for an official pre-flight weather briefing.

13:16:01 UTC

ESPA TAF
Luleå Airport
Luleå, Sweden
TAF ESPA 181130Z 1812/1821 18017KT 9999 -RA OVC009 TEMPO 1812/1818 RA SCT010 OVC030

Aug-18@
12:00 UTC

Aug-18 @ 12:00 UTC

Aug-18@
21:00 UTC

Aug-18 @ 21:00 UTC

TAF ESPA 181130Z 1812/1821 18017KT 9999 -RA OVC009
Wind
  • 180° at 17 KTS
Conditions
Light Rain
Cloud Levels
  • Overcast at 900' AGL

Aug-18@
12:00 UTC

Aug-18 @ 12:00 UTC

Aug-18@
18:00 UTC

Aug-18 @ 18:00 UTC

TEMPO 1812/1818 RA SCT010 OVC030

Temporary

Temporary Changes expected for less than half the time period

Conditions
Rain
Cloud Levels
  • Scattered at 1,000' AGL
  • Overcast at 3,000' AGL